Time;durP1;ratioP1;P1;durP2;ratioP2;P2;SDS_P1;SDS_P2;PMS_P1;PMS_P2;Temp;Humidity;BMP_temperature;BMP_pressure;BME280_temperature;BME280_humidity;BME280_pressure;Samples;Min_cycle;Max_cycle;Signal;HPM_P1;HPM_P2
2022/03/04 00:01:20;;;;;;;;;;;21.60;20.60;;;;;;453937;261;1241;-76
2022/03/04 00:03:22;;;;;;;;;;;21.60;20.60;;;;;;454103;261;1207;-76
2022/03/04 00:05:24;;;;;;;;;;;21.60;20.60;;;;;;454032;261;1085;-76
2022/03/04 00:07:24;;;;;;;;;;;21.60;20.60;;;;;;454075;261;1438;-76
2022/03/04 00:09:26;;;;;;;;;;;21.50;20.60;;;;;;454059;261;1016;-75
2022/03/04 00:11:27;;;;;;;;;;;21.40;20.70;;;;;;454074;261;2133;-76
2022/03/04 00:13:28;;;;;;;;;;;21.40;20.70;;;;;;454061;261;990;-75
2022/03/04 00:15:30;;;;;;;;;;;21.40;20.80;;;;;;454070;261;1198;-75
2022/03/04 00:17:31;;;;;;;;;;;21.20;20.70;;;;;;454006;261;1222;-75
2022/03/04 00:19:32;;;;;;;;;;;21.30;20.80;;;;;;454003;261;1090;-76
2022/03/04 00:21:34;;;;;;;;;;;21.30;20.80;;;;;;453930;261;1366;-76
2022/03/04 00:23:35;;;;;;;;;;;21.30;20.80;;;;;;454012;261;1271;-75
2022/03/04 00:25:36;;;;;;;;;;;21.10;20.80;;;;;;454048;261;1121;-76
2022/03/04 00:27:38;;;;;;;;;;;21.10;20.80;;;;;;453989;261;1182;-76
2022/03/04 00:29:39;;;;;;;;;;;21.20;20.90;;;;;;454043;261;1151;-76
2022/03/04 00:31:40;;;;;;;;;;;21.20;20.80;;;;;;454037;261;2200;-76
2022/03/04 00:33:42;;;;;;;;;;;21.10;20.80;;;;;;454046;261;1180;-75
2022/03/04 00:35:43;;;;;;;;;;;21.10;20.80;;;;;;454051;261;1398;-75
2022/03/04 00:37:44;;;;;;;;;;;21.10;20.90;;;;;;454011;261;1201;-75
2022/03/04 00:39:46;;;;;;;;;;;21.10;20.80;;;;;;454026;261;1090;-75
2022/03/04 00:41:47;;;;;;;;;;;21.20;20.80;;;;;;454003;261;1230;-75
2022/03/04 00:43:48;;;;;;;;;;;21.30;20.80;;;;;;454053;261;1037;-75
2022/03/04 00:45:50;;;;;;;;;;;21.20;20.70;;;;;;454007;261;1302;-75
2022/03/04 00:47:51;;;;;;;;;;;21.30;20.80;;;;;;453996;261;1177;-75
2022/03/04 00:49:52;;;;;;;;;;;21.40;20.70;;;;;;454003;261;1139;-75
2022/03/04 00:51:54;;;;;;;;;;;21.30;20.70;;;;;;453957;261;2200;-75
2022/03/04 00:53:55;;;;;;;;;;;21.30;20.80;;;;;;454062;261;1081;-75
2022/03/04 00:56:09;;;;;;;;;;;21.30;20.80;;;;;;453976;261;1184;-75
2022/03/04 00:58:26;;;;;;;;;;;21.30;20.80;;;;;;453368;263;1200;-76
2022/03/04 01:00:28;;;;;;;;;;;21.50;20.70;;;;;;454107;261;1394;-75
2022/03/04 01:02:29;;;;;;;;;;;21.60;20.50;;;;;;454058;261;1150;-76
2022/03/04 01:04:30;;;;;;;;;;;21.80;20.50;;;;;;454086;261;1068;-76
2022/03/04 01:06:32;;;;;;;;;;;21.90;20.40;;;;;;454010;261;1151;-76
2022/03/04 01:08:33;;;;;;;;;;;22.20;20.30;;;;;;454102;261;1002;-76
2022/03/04 01:10:34;;;;;;;;;;;22.20;20.20;;;;;;454044;261;2137;-75
2022/03/04 01:12:36;;;;;;;;;;;22.40;20.20;;;;;;454142;261;1087;-75
2022/03/04 01:14:37;;;;;;;;;;;22.50;20.20;;;;;;453992;261;1079;-76
2022/03/04 01:16:38;;;;;;;;;;;22.60;20.10;;;;;;454000;261;1210;-76
2022/03/04 01:18:40;;;;;;;;;;;22.60;20.10;;;;;;454077;261;1186;-76
2022/03/04 01:20:41;;;;;;;;;;;22.40;20.10;;;;;;454038;261;1166;-75
2022/03/04 01:22:42;;;;;;;;;;;22.30;20.10;;;;;;454105;261;1177;-75
2022/03/04 01:24:44;;;;;;;;;;;22.20;20.20;;;;;;454110;261;1123;-75
2022/03/04 01:26:45;;;;;;;;;;;22.10;20.20;;;;;;453999;261;1223;-75
2022/03/04 01:28:46;;;;;;;;;;;22.10;20.30;;;;;;454004;261;975;-75
2022/03/04 01:30:48;;;;;;;;;;;22.00;20.40;;;;;;454017;261;2208;-75
2022/03/04 01:32:49;;;;;;;;;;;21.80;20.40;;;;;;454047;261;1259;-76
2022/03/04 01:34:50;;;;;;;;;;;21.70;20.50;;;;;;454050;261;1143;-76
2022/03/04 01:36:52;;;;;;;;;;;21.60;20.60;;;;;;454076;261;1240;-75
2022/03/04 01:38:53;;;;;;;;;;;21.50;20.60;;;;;;454040;261;1052;-75
2022/03/04 01:40:54;;;;;;;;;;;21.70;20.50;;;;;;454011;261;1235;-75
2022/03/04 01:42:56;;;;;;;;;;;21.60;20.50;;;;;;454010;261;1048;-76
2022/03/04 01:44:57;;;;;;;;;;;21.60;20.60;;;;;;454044;261;1094;-76
2022/03/04 01:46:58;;;;;;;;;;;21.50;20.60;;;;;;453956;261;1234;-76
2022/03/04 01:49:00;;;;;;;;;;;21.40;20.60;;;;;;454053;261;1167;-76
2022/03/04 01:51:01;;;;;;;;;;;21.40;20.60;;;;;;454110;261;2137;-75
2022/03/04 01:53:02;;;;;;;;;;;21.40;20.60;;;;;;454062;261;967;-75
2022/03/04 01:55:04;;;;;;;;;;;21.40;20.60;;;;;;454058;261;964;-76
2022/03/04 01:57:05;;;;;;;;;;;21.40;20.70;;;;;;453915;261;1344;-75
2022/03/04 01:59:06;;;;;;;;;;;21.30;20.70;;;;;;454039;261;1041;-75
2022/03/04 02:01:08;;;;;;;;;;;21.40;20.70;;;;;;453999;261;1305;-75
2022/03/04 02:03:09;;;;;;;;;;;21.40;20.60;;;;;;453959;261;1200;-75
2022/03/04 02:05:10;;;;;;;;;;;21.20;20.70;;;;;;454063;261;1182;-75
2022/03/04 02:07:12;;;;;;;;;;;21.20;20.70;;;;;;454010;261;1372;-75
2022/03/04 02:09:13;;;;;;;;;;;21.20;20.70;;;;;;454033;261;1083;-75
2022/03/04 02:11:14;;;;;;;;;;;21.10;20.70;;;;;;453957;261;2204;-75
2022/03/04 02:13:16;;;;;;;;;;;21.10;20.70;;;;;;453986;261;1224;-75
2022/03/04 02:15:17;;;;;;;;;;;21.10;20.80;;;;;;454028;261;1122;-76
2022/03/04 02:17:18;;;;;;;;;;;21.10;20.70;;;;;;454010;261;1042;-76
2022/03/04 02:19:20;;;;;;;;;;;21.20;20.70;;;;;;454041;261;1124;-76
2022/03/04 02:21:22;;;;;;;;;;;21.10;20.70;;;;;;453957;261;1247;-76
2022/03/04 02:23:22;;;;;;;;;;;21.20;20.70;;;;;;454026;261;1583;-76
2022/03/04 02:25:24;;;;;;;;;;;21.10;20.70;;;;;;454077;261;1132;-75
2022/03/04 02:27:25;;;;;;;;;;;21.10;20.80;;;;;;454005;261;1045;-75
2022/03/04 02:29:26;;;;;;;;;;;21.10;20.80;;;;;;454156;261;1100;-75
2022/03/04 02:31:28;;;;;;;;;;;21.10;20.80;;;;;;454001;261;2212;-75
2022/03/04 02:33:29;;;;;;;;;;;21.10;20.80;;;;;;453989;261;1225;-75
2022/03/04 02:35:30;;;;;;;;;;;21.10;20.80;;;;;;454040;261;1221;-76
2022/03/04 02:37:32;;;;;;;;;;;21.00;20.80;;;;;;453894;261;1179;-76
2022/03/04 02:39:33;;;;;;;;;;;21.00;20.80;;;;;;454011;261;1090;-75
2022/03/04 02:41:34;;;;;;;;;;;20.90;20.90;;;;;;453947;261;1109;-75
2022/03/04 02:43:36;;;;;;;;;;;21.10;20.80;;;;;;454030;261;1066;-75
2022/03/04 02:45:37;;;;;;;;;;;21.10;20.80;;;;;;454024;261;1044;-75
2022/03/04 02:47:38;;;;;;;;;;;21.40;20.70;;;;;;453941;261;1133;-75
2022/03/04 02:49:40;;;;;;;;;;;21.30;20.60;;;;;;453987;261;1231;-75
2022/03/04 02:51:41;;;;;;;;;;;21.30;20.70;;;;;;453908;261;2200;-75
2022/03/04 02:53:42;;;;;;;;;;;21.40;20.70;;;;;;454026;261;1171;-75
2022/03/04 02:55:44;;;;;;;;;;;21.40;20.60;;;;;;453989;261;1068;-76
2022/03/04 02:57:45;;;;;;;;;;;21.50;20.60;;;;;;453944;261;1206;-76
2022/03/04 02:59:46;;;;;;;;;;;21.30;20.70;;;;;;453980;261;976;-76
2022/03/04 03:01:48;;;;;;;;;;;21.20;20.70;;;;;;453910;261;1315;-76
2022/03/04 03:03:49;;;;;;;;;;;21.20;20.80;;;;;;454005;261;987;-76
2022/03/04 03:05:50;;;;;;;;;;;21.10;20.80;;;;;;454001;261;1216;-76
2022/03/04 03:07:52;;;;;;;;;;;21.10;20.80;;;;;;453943;261;1197;-76
2022/03/04 03:09:53;;;;;;;;;;;21.40;20.80;;;;;;453938;261;1273;-76
2022/03/04 03:11:54;;;;;;;;;;;21.40;20.70;;;;;;453876;261;2220;-76
2022/03/04 03:13:56;;;;;;;;;;;21.60;20.60;;;;;;454049;261;1059;-76
2022/03/04 03:15:57;;;;;;;;;;;21.80;20.50;;;;;;454018;261;1156;-76
2022/03/04 03:17:58;;;;;;;;;;;22.00;20.40;;;;;;454030;261;1149;-76
2022/03/04 03:20:00;;;;;;;;;;;22.10;20.30;;;;;;454034;261;1266;-76
2022/03/04 03:22:01;;;;;;;;;;;22.30;20.30;;;;;;453890;261;1258;-75
2022/03/04 03:24:03;;;;;;;;;;;22.40;20.10;;;;;;454057;261;1046;-75
2022/03/04 03:26:04;;;;;;;;;;;22.60;20.10;;;;;;453973;261;1249;-75
2022/03/04 03:28:05;;;;;;;;;;;22.60;20.10;;;;;;454052;261;1157;-75
2022/03/04 03:30:06;;;;;;;;;;;22.60;20.00;;;;;;454001;261;1280;-75
2022/03/04 03:32:08;;;;;;;;;;;22.50;20.00;;;;;;453941;261;2216;-75
2022/03/04 03:34:09;;;;;;;;;;;22.40;20.10;;;;;;454026;261;1098;-75
2022/03/04 03:36:10;;;;;;;;;;;22.30;20.20;;;;;;453977;261;1247;-75
2022/03/04 03:38:11;;;;;;;;;;;22.10;20.20;;;;;;454074;261;1174;-75
2022/03/04 03:40:13;;;;;;;;;;;21.90;20.40;;;;;;454096;261;1105;-76
2022/03/04 03:42:14;;;;;;;;;;;21.70;20.40;;;;;;453955;261;1106;-76
2022/03/04 03:44:16;;;;;;;;;;;21.60;20.60;;;;;;454050;261;977;-76
2022/03/04 03:46:17;;;;;;;;;;;21.50;20.70;;;;;;453965;261;1231;-75
2022/03/04 03:48:18;;;;;;;;;;;21.40;20.70;;;;;;453978;261;1201;-75
2022/03/04 03:50:20;;;;;;;;;;;21.30;20.80;;;;;;454024;261;1195;-76
2022/03/04 03:52:21;;;;;;;;;;;21.20;20.80;;;;;;454004;261;2177;-75
2022/03/04 03:54:22;;;;;;;;;;;21.20;20.80;;;;;;454071;261;1197;-76
2022/03/04 03:56:23;;;;;;;;;;;21.20;20.90;;;;;;454019;261;1197;-76
2022/03/04 03:58:25;;;;;;;;;;;21.10;20.90;;;;;;454047;261;1216;-75
2022/03/04 04:00:26;;;;;;;;;;;21.00;21.00;;;;;;454025;261;961;-75
2022/03/04 04:02:27;;;;;;;;;;;21.00;21.00;;;;;;453935;261;1302;-75
2022/03/04 04:04:33;;;;;;;;;;;20.90;21.00;;;;;;454063;261;992;-75
2022/03/04 04:06:31;;;;;;;;;;;20.90;21.10;;;;;;454074;261;1505;-75
2022/03/04 04:08:32;;;;;;;;;;;20.90;21.10;;;;;;454104;261;1081;-75
2022/03/04 04:10:34;;;;;;;;;;;20.90;21.10;;;;;;454057;261;968;-75
2022/03/04 04:12:35;;;;;;;;;;;20.90;21.10;;;;;;454063;261;2212;-75
2022/03/04 04:14:36;;;;;;;;;;;20.80;21.20;;;;;;454073;261;970;-75
2022/03/04 04:16:38;;;;;;;;;;;20.80;21.10;;;;;;454031;261;1239;-75
2022/03/04 04:18:39;;;;;;;;;;;20.80;21.10;;;;;;453978;261;1414;-75
2022/03/04 04:20:40;;;;;;;;;;;20.80;21.10;;;;;;454062;261;1232;-76
2022/03/04 04:22:42;;;;;;;;;;;20.70;21.20;;;;;;453937;261;1198;-75
2022/03/04 04:24:43;;;;;;;;;;;20.70;21.10;;;;;;453989;261;1062;-75
2022/03/04 04:26:44;;;;;;;;;;;20.70;21.10;;;;;;453854;261;1296;-75
2022/03/04 04:28:46;;;;;;;;;;;20.70;21.20;;;;;;454004;261;1279;-75
2022/03/04 04:30:47;;;;;;;;;;;20.60;21.20;;;;;;453977;261;1131;-75
2022/03/04 04:32:48;;;;;;;;;;;20.60;21.20;;;;;;453972;261;2141;-76
2022/03/04 04:34:50;;;;;;;;;;;20.60;21.20;;;;;;454001;261;1157;-76
2022/03/04 04:36:51;;;;;;;;;;;20.60;21.20;;;;;;453990;261;1331;-75
2022/03/04 04:38:52;;;;;;;;;;;20.60;21.20;;;;;;453981;261;1109;-75
2022/03/04 04:40:54;;;;;;;;;;;20.60;21.20;;;;;;453964;261;1009;-75
2022/03/04 04:42:55;;;;;;;;;;;20.60;21.20;;;;;;453905;261;1173;-75
2022/03/04 04:44:56;;;;;;;;;;;20.50;21.20;;;;;;453957;261;1004;-75
2022/03/04 04:46:58;;;;;;;;;;;20.60;21.20;;;;;;453953;261;1189;-75
2022/03/04 04:48:59;;;;;;;;;;;20.70;21.10;;;;;;453995;261;1216;-75
2022/03/04 04:51:00;;;;;;;;;;;20.60;21.20;;;;;;453971;261;1273;-76
2022/03/04 04:53:03;;;;;;;;;;;20.50;21.30;;;;;;454086;261;2192;-76
2022/03/04 04:55:03;;;;;;;;;;;20.40;21.40;;;;;;454058;261;1452;-75
2022/03/04 04:57:04;;;;;;;;;;;20.50;21.30;;;;;;454044;261;1318;-75
2022/03/04 04:59:06;;;;;;;;;;;20.60;21.20;;;;;;454013;261;982;-75
2022/03/04 05:01:07;;;;;;;;;;;20.90;21.10;;;;;;453968;261;1063;-75
2022/03/04 05:03:09;;;;;;;;;;;21.00;21.00;;;;;;454006;261;1111;-75
2022/03/04 05:05:10;;;;;;;;;;;21.20;20.90;;;;;;453974;261;974;-75
2022/03/04 05:07:11;;;;;;;;;;;21.20;20.80;;;;;;453980;261;1328;-75
2022/03/04 05:09:13;;;;;;;;;;;21.20;20.80;;;;;;454023;261;1392;-75
2022/03/04 05:11:14;;;;;;;;;;;21.40;20.80;;;;;;453981;261;1073;-75
2022/03/04 05:13:15;;;;;;;;;;;21.40;20.80;;;;;;453986;261;2145;-75
2022/03/04 05:15:17;;;;;;;;;;;21.50;20.80;;;;;;454020;261;1063;-75
2022/03/04 05:17:18;;;;;;;;;;;21.50;20.70;;;;;;453894;261;1208;-75
2022/03/04 05:19:19;;;;;;;;;;;21.70;20.60;;;;;;453836;261;1001;-75
2022/03/04 05:21:21;;;;;;;;;;;21.90;20.50;;;;;;453815;261;1299;-75
2022/03/04 05:25:41;;;;;;;;;;;22.20;20.40;;;;;;453999;262;1028;-75
2022/03/04 05:27:43;;;;;;;;;;;22.20;20.30;;;;;;453955;261;1221;-76
2022/03/04 05:29:44;;;;;;;;;;;22.30;20.30;;;;;;453898;261;1068;-76
2022/03/04 05:31:45;;;;;;;;;;;22.40;20.30;;;;;;453907;261;2142;-75
2022/03/04 05:33:47;;;;;;;;;;;22.40;20.30;;;;;;453938;261;1198;-75
2022/03/04 05:35:48;;;;;;;;;;;22.50;20.30;;;;;;453959;261;1007;-75
2022/03/04 05:37:49;;;;;;;;;;;22.40;20.20;;;;;;454008;261;1253;-75
2022/03/04 05:39:52;;;;;;;;;;;22.50;20.20;;;;;;453874;261;1092;-75
2022/03/04 05:41:52;;;;;;;;;;;22.50;20.20;;;;;;453800;261;1416;-76
2022/03/04 05:43:53;;;;;;;;;;;22.40;20.20;;;;;;453935;261;973;-76
2022/03/04 05:45:54;;;;;;;;;;;22.40;20.30;;;;;;453912;261;1225;-76
2022/03/04 05:47:56;;;;;;;;;;;22.30;20.30;;;;;;453910;261;1333;-76
2022/03/04 05:49:57;;;;;;;;;;;22.10;20.30;;;;;;453918;261;966;-76
2022/03/04 05:51:58;;;;;;;;;;;22.20;20.30;;;;;;453810;261;2177;-76
2022/03/04 05:54:00;;;;;;;;;;;22.00;20.40;;;;;;453893;261;1039;-76
2022/03/04 05:56:01;;;;;;;;;;;22.10;20.40;;;;;;453887;261;1218;-76
2022/03/04 05:58:02;;;;;;;;;;;22.10;20.40;;;;;;453828;261;1110;-76
2022/03/04 06:00:04;;;;;;;;;;;22.00;20.50;;;;;;453810;261;1009;-76
2022/03/04 06:02:05;;;;;;;;;;;21.90;20.50;;;;;;453739;261;1241;-76
2022/03/04 06:04:06;;;;;;;;;;;21.90;20.50;;;;;;453869;261;976;-75
2022/03/04 06:06:08;;;;;;;;;;;22.00;20.50;;;;;;453856;261;1002;-75
2022/03/04 06:08:09;;;;;;;;;;;21.80;20.60;;;;;;453707;261;1234;-75
2022/03/04 06:10:10;;;;;;;;;;;21.90;20.50;;;;;;453624;261;1042;-76
2022/03/04 06:12:11;;;;;;;;;;;21.90;20.50;;;;;;453795;261;2204;-76
2022/03/04 06:14:13;;;;;;;;;;;21.90;20.50;;;;;;453810;261;1080;-75
2022/03/04 06:16:14;;;;;;;;;;;21.80;20.50;;;;;;453650;261;1054;-76
2022/03/04 06:18:15;;;;;;;;;;;21.80;20.50;;;;;;453709;261;1058;-76
2022/03/04 06:20:17;;;;;;;;;;;21.90;20.50;;;;;;453776;261;1053;-76
2022/03/04 06:22:20;;;;;;;;;;;21.80;20.50;;;;;;453619;261;1136;-75
2022/03/04 06:24:20;;;;;;;;;;;21.80;20.50;;;;;;453816;261;1487;-75
2022/03/04 06:26:21;;;;;;;;;;;21.80;20.50;;;;;;453809;261;1087;-76
2022/03/04 06:28:22;;;;;;;;;;;21.60;20.60;;;;;;453698;261;1080;-75
2022/03/04 06:30:24;;;;;;;;;;;21.60;20.60;;;;;;453706;261;1239;-76
2022/03/04 06:32:25;;;;;;;;;;;21.70;20.60;;;;;;453414;261;2219;-75
2022/03/04 06:34:26;;;;;;;;;;;21.70;20.60;;;;;;453826;261;1123;-75
2022/03/04 06:36:28;;;;;;;;;;;21.60;20.60;;;;;;453719;261;1196;-76
2022/03/04 06:38:29;;;;;;;;;;;21.60;20.60;;;;;;453779;261;1205;-75
2022/03/04 06:40:30;;;;;;;;;;;21.60;20.70;;;;;;453809;261;1026;-75
2022/03/04 06:42:32;;;;;;;;;;;21.50;20.70;;;;;;453762;261;1160;-75
2022/03/04 06:44:33;;;;;;;;;;;21.60;20.70;;;;;;453802;261;1092;-75
2022/03/04 06:46:34;;;;;;;;;;;21.50;20.70;;;;;;453719;261;1199;-75
2022/03/04 06:48:36;;;;;;;;;;;21.60;20.70;;;;;;453798;261;1039;-76
2022/03/04 06:50:37;;;;;;;;;;;21.60;20.70;;;;;;453822;261;1003;-76
2022/03/04 06:52:38;;;;;;;;;;;21.60;20.70;;;;;;453754;261;2161;-76
2022/03/04 06:54:39;;;;;;;;;;;21.50;20.70;;;;;;453735;261;1364;-76
2022/03/04 06:56:41;;;;;;;;;;;21.50;20.80;;;;;;453755;261;1218;-75
2022/03/04 06:58:42;;;;;;;;;;;21.40;20.80;;;;;;453835;261;1202;-76
2022/03/04 07:00:44;;;;;;;;;;;21.40;20.80;;;;;;453763;261;1363;-75
2022/03/04 07:02:45;;;;;;;;;;;21.30;20.90;;;;;;453704;261;1324;-75
2022/03/04 07:04:47;;;;;;;;;;;21.40;20.80;;;;;;453790;261;1148;-76
2022/03/04 07:06:47;;;;;;;;;;;21.40;20.80;;;;;;453739;261;1426;-76
2022/03/04 07:08:49;;;;;;;;;;;21.50;20.80;;;;;;453726;261;1199;-76
2022/03/04 07:10:50;;;;;;;;;;;21.50;20.70;;;;;;453598;261;988;-75
2022/03/04 07:12:51;;;;;;;;;;;21.60;20.80;;;;;;453623;261;2220;-75
2022/03/04 07:14:53;;;;;;;;;;;21.60;20.70;;;;;;453784;261;1021;-75
2022/03/04 07:16:54;;;;;;;;;;;21.60;20.70;;;;;;453725;261;1263;-75
2022/03/04 07:18:55;;;;;;;;;;;21.60;20.70;;;;;;453718;261;1184;-75
2022/03/04 07:20:57;;;;;;;;;;;21.60;20.70;;;;;;453751;261;1522;-76
2022/03/04 07:22:58;;;;;;;;;;;21.80;20.70;;;;;;453649;261;1186;-75
2022/03/04 07:25:00;;;;;;;;;;;21.80;20.60;;;;;;453651;261;1036;-75
2022/03/04 07:27:01;;;;;;;;;;;21.90;20.60;;;;;;453621;261;1284;-75
2022/03/04 07:29:02;;;;;;;;;;;22.00;20.50;;;;;;453669;261;1163;-75
2022/03/04 07:31:03;;;;;;;;;;;22.20;20.50;;;;;;453595;261;1278;-75
2022/03/04 07:33:05;;;;;;;;;;;22.30;20.40;;;;;;453578;261;2216;-75
2022/03/04 07:35:07;;;;;;;;;;;22.40;20.30;;;;;;453522;261;1060;-75
2022/03/04 07:37:08;;;;;;;;;;;22.50;20.30;;;;;;453382;261;1447;-75
2022/03/04 07:39:09;;;;;;;;;;;22.60;20.20;;;;;;453657;261;1199;-75
2022/03/04 07:41:11;;;;;;;;;;;22.50;20.30;;;;;;453644;261;1008;-76
2022/03/04 07:43:12;;;;;;;;;;;22.50;20.40;;;;;;453568;261;1326;-76
2022/03/04 07:45:14;;;;;;;;;;;22.50;20.30;;;;;;453601;261;1065;-75
2022/03/04 07:47:15;;;;;;;;;;;22.50;20.40;;;;;;453525;261;1131;-75
2022/03/04 07:49:16;;;;;;;;;;;22.50;20.40;;;;;;453369;261;1061;-76
2022/03/04 07:51:17;;;;;;;;;;;22.40;20.40;;;;;;453439;261;1280;-75
2022/03/04 07:53:19;;;;;;;;;;;22.40;20.40;;;;;;453443;261;2196;-75
2022/03/04 07:55:21;;;;;;;;;;;22.30;20.50;;;;;;453474;261;1139;-75
2022/03/04 07:57:22;;;;;;;;;;;22.20;20.50;;;;;;453407;261;1218;-76
2022/03/04 07:59:23;;;;;;;;;;;22.10;20.60;;;;;;453506;261;1052;-75
2022/03/04 08:01:24;;;;;;;;;;;22.00;20.60;;;;;;453507;261;1234;-76
2022/03/04 08:03:26;;;;;;;;;;;21.90;20.60;;;;;;453487;261;1158;-76
2022/03/04 08:05:27;;;;;;;;;;;21.80;20.80;;;;;;453290;261;1092;-75
2022/03/04 08:07:28;;;;;;;;;;;21.80;20.80;;;;;;453287;261;1080;-75
2022/03/04 08:09:30;;;;;;;;;;;21.80;20.80;;;;;;453447;261;1224;-75
2022/03/04 08:11:31;;;;;;;;;;;21.90;20.80;;;;;;453366;261;1313;-75
2022/03/04 08:13:34;;;;;;;;;;;21.80;20.80;;;;;;453382;261;2200;-76
2022/03/04 08:15:34;;;;;;;;;;;21.70;20.90;;;;;;453360;261;1265;-75
2022/03/04 08:17:35;;;;;;;;;;;21.70;21.00;;;;;;453280;261;1323;-75
2022/03/04 08:19:39;;;;;;;;;;;21.70;21.00;;;;;;453502;261;1035;-75
2022/03/04 08:21:39;;;;;;;;;;;21.60;21.00;;;;;;453470;261;1369;-75
2022/03/04 08:23:39;;;;;;;;;;;21.60;21.00;;;;;;453414;259;1528;-75
2022/03/04 08:25:41;;;;;;;;;;;21.70;20.90;;;;;;453471;261;1504;-75
2022/03/04 08:27:42;;;;;;;;;;;21.70;21.00;;;;;;453276;261;1133;-76
2022/03/04 08:29:43;;;;;;;;;;;21.60;21.00;;;;;;453350;261;1050;-76
2022/03/04 08:31:45;;;;;;;;;;;21.70;21.00;;;;;;453292;261;1314;-75
2022/03/04 08:33:47;;;;;;;;;;;21.80;21.00;;;;;;453278;261;2192;-76
2022/03/04 08:35:47;;;;;;;;;;;21.80;21.00;;;;;;453218;261;1415;-75
2022/03/04 08:37:49;;;;;;;;;;;21.80;21.00;;;;;;453271;261;1082;-76
2022/03/04 08:39:50;;;;;;;;;;;21.90;21.10;;;;;;453490;261;1963;-75
2022/03/04 08:41:51;;;;;;;;;;;21.80;21.00;;;;;;453417;261;1146;-76
2022/03/04 08:43:53;;;;;;;;;;;21.90;21.00;;;;;;453448;261;1066;-76
2022/03/04 08:45:54;;;;;;;;;;;22.00;21.00;;;;;;453403;263;1231;-75
2022/03/04 08:47:55;;;;;;;;;;;22.00;21.00;;;;;;453413;261;1143;-76
2022/03/04 08:49:56;;;;;;;;;;;22.00;21.00;;;;;;453414;261;1085;-75
2022/03/04 08:51:58;;;;;;;;;;;22.00;21.00;;;;;;453393;261;1100;-76
2022/03/04 08:53:59;;;;;;;;;;;22.10;21.00;;;;;;453311;261;2204;-75
2022/03/04 08:56:00;;;;;;;;;;;22.10;21.00;;;;;;453414;261;1211;-76
2022/03/04 08:58:02;;;;;;;;;;;22.10;21.00;;;;;;453368;261;1121;-75
2022/03/04 09:00:03;;;;;;;;;;;22.10;20.90;;;;;;453264;261;1054;-75
2022/03/04 09:02:04;;;;;;;;;;;22.10;20.90;;;;;;453227;261;1210;-75
2022/03/04 09:04:06;;;;;;;;;;;22.10;20.90;;;;;;453397;261;1182;-75
2022/03/04 09:06:07;;;;;;;;;;;22.10;20.90;;;;;;453464;261;1518;-75
2022/03/04 09:08:08;;;;;;;;;;;22.10;20.90;;;;;;453404;261;1321;-75
2022/03/04 09:10:10;;;;;;;;;;;22.00;20.90;;;;;;453419;261;1089;-75
2022/03/04 09:12:11;;;;;;;;;;;22.10;21.00;;;;;;453522;261;1368;-75
2022/03/04 09:14:12;;;;;;;;;;;22.10;21.00;;;;;;453377;261;2212;-75
2022/03/04 09:16:14;;;;;;;;;;;22.00;21.00;;;;;;453232;261;1251;-75
2022/03/04 09:18:15;;;;;;;;;;;22.00;21.00;;;;;;453289;261;1331;-75
2022/03/04 09:20:19;;;;;;;;;;;22.10;21.10;;;;;;453242;261;1033;-75
2022/03/04 09:22:18;;;;;;;;;;;22.00;21.00;;;;;;453162;261;1315;-75
2022/03/04 09:24:19;;;;;;;;;;;22.00;21.00;;;;;;453402;261;1175;-75
2022/03/04 09:26:20;;;;;;;;;;;22.10;21.10;;;;;;453286;259;1442;-75
2022/03/04 09:28:22;;;;;;;;;;;22.00;21.10;;;;;;453313;261;1123;-75
2022/03/04 09:30:23;;;;;;;;;;;22.00;21.10;;;;;;453419;261;1051;-75
2022/03/04 09:32:24;;;;;;;;;;;22.00;21.10;;;;;;453377;261;1204;-75
2022/03/04 09:34:25;;;;;;;;;;;22.10;21.10;;;;;;453474;261;2212;-75
2022/03/04 09:36:27;;;;;;;;;;;22.10;21.00;;;;;;453357;261;1214;-75
2022/03/04 09:38:28;;;;;;;;;;;22.30;21.00;;;;;;453461;261;1176;-75
2022/03/04 09:40:29;;;;;;;;;;;22.30;20.90;;;;;;453372;261;1393;-76
2022/03/04 09:42:31;;;;;;;;;;;22.50;20.90;;;;;;453461;261;1229;-76
2022/03/04 09:44:32;;;;;;;;;;;22.70;20.80;;;;;;453454;261;1103;-75
2022/03/04 09:46:33;;;;;;;;;;;22.80;20.70;;;;;;453489;261;1215;-76
2022/03/04 09:48:40;;;;;;;;;;;22.90;20.60;;;;;;453476;261;1222;-75
2022/03/04 09:50:36;;;;;;;;;;;23.00;20.60;;;;;;453324;261;1413;-75
2022/03/04 09:52:37;;;;;;;;;;;23.00;20.60;;;;;;453254;261;1318;-75
2022/03/04 09:54:39;;;;;;;;;;;23.00;20.60;;;;;;453141;261;2149;-75
2022/03/04 09:56:40;;;;;;;;;;;22.90;20.60;;;;;;453173;261;1308;-75
2022/03/04 09:58:41;;;;;;;;;;;22.90;20.60;;;;;;453919;261;1133;-75
2022/03/04 10:00:43;;;;;;;;;;;22.70;20.70;;;;;;453399;261;1155;-75
2022/03/04 10:02:44;;;;;;;;;;;22.60;20.70;;;;;;453368;261;1262;-75
2022/03/04 10:04:45;;;;;;;;;;;22.60;20.80;;;;;;453428;261;1134;-75
2022/03/04 10:06:48;;;;;;;;;;;22.30;20.90;;;;;;453325;261;1242;-75
2022/03/04 10:08:49;;;;;;;;;;;22.30;20.90;;;;;;453409;261;1323;-75
2022/03/04 10:10:50;;;;;;;;;;;22.20;21.00;;;;;;453430;261;1197;-75
2022/03/04 10:12:51;;;;;;;;;;;22.10;21.00;;;;;;453388;261;1155;-75
2022/03/04 10:14:52;;;;;;;;;;;22.20;21.00;;;;;;453352;261;2193;-75
2022/03/04 10:16:54;;;;;;;;;;;22.10;21.00;;;;;;453346;261;1233;-75
2022/03/04 10:18:55;;;;;;;;;;;22.00;21.00;;;;;;453576;261;1112;-76
2022/03/04 10:20:56;;;;;;;;;;;22.10;21.00;;;;;;453441;261;1255;-76
2022/03/04 10:22:58;;;;;;;;;;;22.00;21.00;;;;;;453517;261;1001;-75
2022/03/04 10:24:59;;;;;;;;;;;22.10;21.10;;;;;;453396;261;1105;-75
2022/03/04 10:27:00;;;;;;;;;;;22.10;21.10;;;;;;453324;261;1476;-75
2022/03/04 10:29:02;;;;;;;;;;;22.00;21.00;;;;;;453364;261;1243;-76
2022/03/04 10:31:03;;;;;;;;;;;22.00;21.10;;;;;;453356;261;1134;-75
2022/03/04 10:33:04;;;;;;;;;;;22.10;21.10;;;;;;453332;261;1070;-75
2022/03/04 10:35:06;;;;;;;;;;;22.10;21.00;;;;;;453366;261;2201;-75
2022/03/04 10:37:07;;;;;;;;;;;22.00;21.10;;;;;;452517;261;1234;-75
2022/03/04 10:39:08;;;;;;;;;;;22.00;21.10;;;;;;453389;261;1048;-76
2022/03/04 10:41:10;;;;;;;;;;;22.00;21.00;;;;;;453340;261;1347;-75
2022/03/04 10:43:11;;;;;;;;;;;22.00;21.00;;;;;;453448;261;1263;-76
2022/03/04 10:45:12;;;;;;;;;;;22.00;21.00;;;;;;453322;261;1061;-75
2022/03/04 10:47:14;;;;;;;;;;;22.00;21.00;;;;;;453281;261;1158;-75
2022/03/04 10:49:15;;;;;;;;;;;21.90;21.00;;;;;;453346;261;1137;-75
2022/03/04 10:51:16;;;;;;;;;;;21.90;21.00;;;;;;453384;258;1346;-75
2022/03/04 10:53:18;;;;;;;;;;;22.00;21.00;;;;;;453417;261;1106;-76
2022/03/04 10:55:19;;;;;;;;;;;21.90;21.00;;;;;;453410;261;2200;-75
2022/03/04 10:57:21;;;;;;;;;;;22.00;21.10;;;;;;453403;261;1313;-75
2022/03/04 10:59:22;;;;;;;;;;;22.00;21.10;;;;;;453540;261;1210;-76
2022/03/04 11:01:23;;;;;;;;;;;21.90;21.10;;;;;;453432;261;1034;-75
2022/03/04 11:03:24;;;;;;;;;;;21.80;21.10;;;;;;452737;261;1052;-75
2022/03/04 11:05:26;;;;;;;;;;;21.90;21.10;;;;;;453481;261;1046;-75
2022/03/04 11:07:27;;;;;;;;;;;22.00;21.10;;;;;;453413;261;1228;-75
2022/03/04 11:09:28;;;;;;;;;;;21.90;21.00;;;;;;453483;261;1073;-76
2022/03/04 11:11:30;;;;;;;;;;;21.90;21.00;;;;;;453423;261;1347;-76
2022/03/04 11:13:33;;;;;;;;;;;21.90;21.10;;;;;;453512;261;1086;-75
2022/03/04 11:15:32;;;;;;;;;;;21.80;21.10;;;;;;453445;261;2215;-75
2022/03/04 11:17:34;;;;;;;;;;;21.90;21.10;;;;;;453347;261;1174;-75
2022/03/04 11:19:35;;;;;;;;;;;21.80;21.00;;;;;;453580;261;1063;-75
2022/03/04 11:21:36;;;;;;;;;;;21.90;21.00;;;;;;453532;261;1237;-75
2022/03/04 11:23:38;;;;;;;;;;;21.90;21.00;;;;;;453458;261;1035;-75
2022/03/04 11:25:39;;;;;;;;;;;21.80;21.00;;;;;;453547;261;1099;-76
2022/03/04 11:27:40;;;;;;;;;;;21.90;21.00;;;;;;453362;261;1159;-75
2022/03/04 11:29:42;;;;;;;;;;;22.00;20.90;;;;;;453402;261;1015;-75
2022/03/04 11:31:43;;;;;;;;;;;22.00;21.00;;;;;;453310;261;1238;-75
2022/03/04 11:33:44;;;;;;;;;;;22.00;20.90;;;;;;453334;261;1214;-75
2022/03/04 11:35:45;;;;;;;;;;;22.00;20.90;;;;;;453387;261;2193;-75
2022/03/04 11:37:47;;;;;;;;;;;22.00;20.90;;;;;;453390;261;1233;-76
2022/03/04 11:39:48;;;;;;;;;;;22.00;20.90;;;;;;453435;261;1055;-75
2022/03/04 11:41:49;;;;;;;;;;;21.90;20.90;;;;;;453416;261;1220;-75
2022/03/04 11:43:51;;;;;;;;;;;21.80;21.00;;;;;;453506;261;1019;-75
2022/03/04 11:45:52;;;;;;;;;;;22.00;21.00;;;;;;453274;261;1206;-75
2022/03/04 11:47:53;;;;;;;;;;;21.90;21.00;;;;;;453282;261;1074;-75
2022/03/04 11:49:55;;;;;;;;;;;21.90;21.00;;;;;;453458;261;1057;-76
2022/03/04 11:51:56;;;;;;;;;;;22.00;20.90;;;;;;453454;261;1231;-75
2022/03/04 11:53:57;;;;;;;;;;;21.90;20.90;;;;;;453457;261;2238;-75
2022/03/04 11:55:59;;;;;;;;;;;21.90;20.90;;;;;;453466;261;1200;-75
2022/03/04 11:58:00;;;;;;;;;;;22.00;20.90;;;;;;453352;261;1241;-75
2022/03/04 12:00:01;;;;;;;;;;;21.90;20.90;;;;;;453326;261;1057;-75